createdAt,value
2018-05-18T00:00:57.707Z,38.90
2018-05-18T00:03:26.688Z,29.27
2018-05-18T00:05:55.715Z,32.53
2018-05-18T00:08:24.698Z,32.27
2018-05-18T00:10:53.669Z,26.63
2018-05-18T00:13:22.642Z,36.00
2018-05-18T00:15:51.620Z,33.10
2018-05-18T00:18:20.656Z,38.37
2018-05-18T00:20:49.618Z,36.57
2018-05-18T00:23:18.600Z,40.77
2018-05-18T00:25:47.568Z,41.13
2018-05-18T00:28:16.536Z,37.53
2018-05-18T00:30:45.536Z,35.80
2018-05-18T00:33:14.501Z,46.77
2018-05-18T00:35:43.459Z,44.27
2018-05-18T00:38:12.428Z,46.87
2018-05-18T00:40:41.388Z,37.83
2018-05-18T00:43:10.396Z,44.93
2018-05-18T00:45:39.377Z,41.00
2018-05-18T00:48:08.340Z,39.43
2018-05-18T00:50:37.351Z,40.93
2018-05-18T00:53:06.343Z,35.27
2018-05-18T00:55:39.048Z,37.23
2018-05-18T00:58:08.024Z,45.23
2018-05-18T01:00:36.977Z,38.50
2018-05-18T01:03:05.942Z,39.47
2018-05-18T01:05:34.955Z,35.43
2018-05-18T01:08:03.932Z,37.43
2018-05-18T01:10:33.634Z,37.83
2018-05-18T01:13:02.622Z,48.73
2018-05-18T01:15:31.593Z,32.43
2018-05-18T01:18:00.610Z,40.73
2018-05-18T01:20:29.582Z,39.33
2018-05-18T01:22:58.555Z,37.50
2018-05-18T01:25:27.531Z,44.97
2018-05-18T01:27:56.526Z,48.97
2018-05-18T01:30:25.519Z,44.53
2018-05-18T01:32:54.488Z,44.50
2018-05-18T01:35:23.445Z,44.20
2018-05-18T01:37:52.430Z,37.40
2018-05-18T01:40:21.429Z,42.53
2018-05-18T01:42:50.405Z,43.97
2018-05-18T01:45:19.376Z,48.07
2018-05-18T01:47:48.339Z,55.10
2018-05-18T01:50:17.303Z,46.70
2018-05-18T01:52:46.334Z,48.77
2018-05-18T01:55:15.307Z,43.40
2018-05-18T01:57:44.270Z,49.93
2018-05-18T02:00:13.254Z,42.90
2018-05-18T02:02:42.255Z,48.23
2018-05-18T02:05:11.254Z,45.97
2018-05-18T02:07:40.221Z,57.10
2018-05-18T02:10:09.178Z,49.30
2018-05-18T02:12:38.141Z,49.33
2018-05-18T02:15:07.110Z,50.40
2018-05-18T02:17:36.119Z,50.90
2018-05-18T02:20:05.091Z,52.07
2018-05-18T02:22:34.070Z,60.70
2018-05-18T02:25:03.043Z,50.73
2018-05-18T02:27:32.000Z,53.20
2018-05-18T02:30:01.002Z,52.27
2018-05-18T02:32:29.978Z,56.47
2018-05-18T02:34:58.954Z,50.13
2018-05-18T02:37:27.910Z,59.43
2018-05-18T02:39:56.862Z,55.10
2018-05-18T02:42:25.875Z,54.50
2018-05-18T02:44:54.863Z,52.47
2018-05-18T02:47:23.819Z,59.17
2018-05-18T02:49:52.775Z,56.83
2018-05-18T02:52:21.785Z,57.47
2018-05-18T02:54:50.833Z,62.70
2018-05-18T02:57:19.806Z,57.67
2018-05-18T02:59:48.779Z,55.50
2018-05-18T03:02:17.746Z,61.40
2018-05-18T03:04:46.717Z,58.50
2018-05-18T03:07:15.726Z,63.83
2018-05-18T03:09:44.714Z,62.07
2018-05-18T03:12:13.667Z,53.43
2018-05-18T03:14:42.653Z,58.10
2018-05-18T03:17:11.631Z,53.20
2018-05-18T03:19:40.626Z,50.87
2018-05-18T03:22:09.618Z,56.37
2018-05-18T03:24:38.616Z,53.47
2018-05-18T03:27:07.592Z,49.07
2018-05-18T03:29:36.565Z,46.67
2018-05-18T03:32:05.544Z,51.87
2018-05-18T03:34:34.521Z,55.07
2018-05-18T03:37:03.531Z,52.70
2018-05-18T03:39:32.518Z,60.33
2018-05-18T03:42:01.493Z,55.50
2018-05-18T03:44:30.473Z,51.27
2018-05-18T03:46:59.449Z,48.90
2018-05-18T03:49:28.484Z,39.27
2018-05-18T03:51:57.459Z,45.37
2018-05-18T03:54:26.437Z,44.77
2018-05-18T03:56:55.412Z,36.93
2018-05-18T03:59:24.388Z,41.73
2018-05-18T04:01:59.351Z,39.70
2018-05-18T04:04:34.179Z,42.90
2018-05-18T04:07:09.164Z,40.27
2018-05-18T04:09:38.131Z,38.50
2018-05-18T04:12:07.105Z,30.57
2018-05-18T04:14:36.085Z,32.77
2018-05-18T04:17:05.066Z,35.30
2018-05-18T04:19:34.080Z,28.20
2018-05-18T04:22:03.064Z,30.23
2018-05-18T04:24:32.053Z,29.80
2018-05-18T04:27:01.037Z,32.53
2018-05-18T04:29:30.029Z,32.53
2018-05-18T04:31:59.085Z,31.93
2018-05-18T04:34:28.062Z,36.13
2018-05-18T04:36:57.033Z,33.80
2018-05-18T04:39:26.016Z,31.67
2018-05-18T04:41:54.983Z,31.20
2018-05-18T04:44:23.963Z,32.37
2018-05-18T04:46:52.930Z,30.17
2018-05-18T04:49:21.961Z,36.00
2018-05-18T04:51:50.962Z,35.97
2018-05-18T04:54:19.937Z,30.70
2018-05-18T04:56:48.915Z,38.50
2018-05-18T04:59:17.915Z,33.17
2018-05-18T05:01:46.932Z,35.87
2018-05-18T05:04:15.935Z,40.07
2018-05-18T05:06:44.914Z,33.83
2018-05-18T05:09:13.891Z,32.87
2018-05-18T05:11:42.880Z,35.77
2018-05-18T05:14:11.906Z,33.93
2018-05-18T05:16:40.875Z,34.13
2018-05-18T05:19:09.847Z,35.47
2018-05-18T05:21:38.840Z,33.70
2018-05-18T05:24:07.825Z,33.73
2018-05-18T05:26:36.827Z,33.43
2018-05-18T05:29:05.812Z,36.33
2018-05-18T05:31:34.777Z,25.93
2018-05-18T05:34:03.736Z,30.03
2018-05-18T05:36:32.716Z,33.17
2018-05-18T05:39:01.748Z,34.80
2018-05-18T05:41:30.763Z,34.20
2018-05-18T05:43:59.747Z,33.90
2018-05-18T05:46:28.728Z,35.00
2018-05-18T05:48:57.702Z,36.70
2018-05-18T05:51:26.747Z,34.77
2018-05-18T05:53:55.740Z,35.67
2018-05-18T05:56:24.711Z,35.53
2018-05-18T05:58:53.669Z,31.57
2018-05-18T06:01:22.738Z,31.80
2018-05-18T06:03:51.746Z,35.67
2018-05-18T06:06:20.692Z,31.73
2018-05-18T06:08:49.629Z,36.53
2018-05-18T06:11:18.952Z,29.57
2018-05-18T06:13:47.905Z,29.03
2018-05-18T06:16:16.940Z,34.37
2018-05-18T06:18:45.889Z,33.10
2018-05-18T06:21:14.875Z,29.23
2018-05-18T06:23:43.823Z,30.67
2018-05-18T06:26:12.768Z,28.03
2018-05-18T06:28:41.792Z,33.27
2018-05-18T06:31:10.720Z,38.17
2018-05-18T06:33:39.718Z,35.37
2018-05-18T06:36:08.690Z,36.30
2018-05-18T06:38:37.698Z,37.10
2018-05-18T06:41:06.737Z,36.17
2018-05-18T06:43:35.760Z,39.07
2018-05-18T06:46:04.781Z,36.87
2018-05-18T06:48:34.416Z,39.07
2018-05-18T06:51:03.403Z,40.83
2018-05-18T06:53:32.385Z,39.23
2018-05-18T06:56:01.346Z,45.10
2018-05-18T06:58:30.373Z,42.30
2018-05-18T07:00:59.403Z,45.83
2018-05-18T07:03:28.366Z,42.07
2018-05-18T07:05:57.317Z,34.83
2018-05-18T07:08:26.307Z,40.37
2018-05-18T07:10:55.317Z,44.83
2018-05-18T07:13:24.278Z,38.50
2018-05-18T07:15:53.284Z,42.80
2018-05-18T07:18:22.225Z,45.63
2018-05-18T07:20:53.430Z,41.07
2018-05-18T07:23:22.431Z,37.87
2018-05-18T07:25:51.401Z,41.03
2018-05-18T07:28:20.686Z,38.93
2018-05-18T07:30:50.434Z,40.40
2018-05-18T07:33:19.544Z,46.23
2018-05-18T07:35:48.499Z,43.03
2018-05-18T07:38:17.497Z,47.23
2018-05-18T07:40:46.535Z,44.60
2018-05-18T07:43:15.576Z,43.80
2018-05-18T07:45:44.582Z,49.73
2018-05-18T07:48:13.584Z,46.23
2018-05-18T07:50:42.586Z,48.80
2018-05-18T07:53:11.586Z,44.33
2018-05-18T07:55:40.536Z,42.47
2018-05-18T07:58:09.481Z,46.57
2018-05-18T08:00:38.596Z,42.50
2018-05-18T08:03:07.640Z,46.20
2018-05-18T08:05:36.587Z,47.10
2018-05-18T08:08:05.566Z,49.00
2018-05-18T08:10:34.672Z,44.33
2018-05-18T08:13:04.493Z,48.27
2018-05-18T08:15:33.605Z,40.07
2018-05-18T08:18:02.914Z,50.07
2018-05-18T08:20:31.878Z,51.87
2018-05-18T08:23:00.857Z,43.10
2018-05-18T08:25:29.810Z,47.93
2018-05-18T08:27:58.848Z,46.87
2018-05-18T08:30:27.853Z,47.17
2018-05-18T08:32:56.955Z,50.60
2018-05-18T08:35:25.999Z,50.47
2018-05-18T08:37:55.169Z,47.60
2018-05-18T08:40:24.133Z,46.73
2018-05-18T08:42:53.109Z,45.33
2018-05-18T08:45:22.109Z,45.43
2018-05-18T08:47:51.077Z,47.47
2018-05-18T08:50:20.088Z,37.53
2018-05-18T08:52:49.179Z,41.97
2018-05-18T08:55:18.199Z,38.60
2018-05-18T08:57:47.171Z,40.80
2018-05-18T09:00:16.224Z,37.47
2018-05-18T09:02:46.249Z,37.47
2018-05-18T09:05:15.721Z,33.53
2018-05-18T09:07:44.677Z,41.53
2018-05-18T09:10:13.627Z,43.07
2018-05-18T09:12:42.639Z,41.17
2018-05-18T09:15:11.599Z,34.17
2018-05-18T09:17:40.548Z,38.83
2018-05-18T09:20:09.529Z,44.63
2018-05-18T09:22:38.494Z,45.87
2018-05-18T09:25:07.486Z,41.60
2018-05-18T09:27:36.582Z,38.80
2018-05-18T09:30:05.600Z,38.57
2018-05-18T09:32:34.562Z,41.53
2018-05-18T09:35:03.564Z,37.63
2018-05-18T09:37:32.653Z,33.37
2018-05-18T09:40:03.002Z,36.47
2018-05-18T09:42:32.003Z,38.53
2018-05-18T09:45:00.956Z,36.70
2018-05-18T09:47:29.911Z,33.40
2018-05-18T09:49:58.970Z,33.60
2018-05-18T09:52:27.931Z,34.27
2018-05-18T09:54:57.139Z,33.33
2018-05-18T09:57:25.917Z,32.00
2018-05-18T09:59:54.880Z,34.47
2018-05-18T10:02:24.650Z,31.33
2018-05-18T10:04:53.666Z,30.23
2018-05-18T10:07:22.631Z,30.27
2018-05-18T10:09:51.993Z,34.00
2018-05-18T10:12:21.716Z,33.23
2018-05-18T10:14:50.675Z,32.93
2018-05-18T10:17:19.879Z,31.93
2018-05-18T10:19:49.498Z,31.10
2018-05-18T10:22:18.511Z,26.60
2018-05-18T10:24:47.468Z,31.17
2018-05-18T10:27:16.478Z,30.00
2018-05-18T10:29:45.422Z,31.80
2018-05-18T10:32:14.374Z,32.07
2018-05-18T10:34:43.360Z,26.47
2018-05-18T10:37:12.399Z,27.67
2018-05-18T10:39:41.758Z,28.60
2018-05-18T10:42:10.695Z,29.93
2018-05-18T10:44:39.654Z,30.27
2018-05-18T10:47:08.616Z,28.77
2018-05-18T10:49:37.689Z,27.77
2018-05-18T10:52:06.647Z,27.27
2018-05-18T10:54:35.738Z,30.13
2018-05-18T10:57:04.777Z,24.40
2018-05-18T10:59:34.601Z,28.97
2018-05-18T11:02:03.549Z,23.97
2018-05-18T11:04:32.592Z,29.90
2018-05-18T11:07:01.725Z,25.43
2018-05-18T11:09:30.702Z,25.10
2018-05-18T11:11:59.705Z,26.63
2018-05-18T11:14:28.652Z,26.70
2018-05-18T11:16:57.629Z,23.97
2018-05-18T11:19:27.476Z,25.67
2018-05-18T11:21:56.427Z,28.47
2018-05-18T11:24:25.365Z,31.70
2018-05-18T11:26:55.103Z,25.80
2018-05-18T11:29:24.110Z,27.73
2018-05-18T11:31:53.057Z,28.90
2018-05-18T11:34:22.043Z,29.97
2018-05-18T11:36:50.990Z,27.03
2018-05-18T11:39:20.035Z,25.17
2018-05-18T11:41:50.858Z,21.70
2018-05-18T11:44:19.834Z,25.37
2018-05-18T11:46:48.782Z,25.07
2018-05-18T11:49:17.804Z,26.80
2018-05-18T11:51:46.763Z,23.40
2018-05-18T11:54:15.722Z,22.13
2018-05-18T11:56:44.732Z,24.60
2018-05-18T11:59:13.685Z,20.83
2018-05-18T12:01:42.639Z,20.80
2018-05-18T12:04:11.630Z,18.17
2018-05-18T12:06:40.579Z,23.27
2018-05-18T12:09:09.575Z,20.20
2018-05-18T12:11:38.589Z,19.57
2018-05-18T12:14:07.593Z,25.37
2018-05-18T12:16:36.590Z,26.10
2018-05-18T12:19:05.690Z,24.47
2018-05-18T12:21:34.650Z,30.97
2018-05-18T12:24:03.707Z,23.17
2018-05-18T12:26:32.690Z,25.87
2018-05-18T12:29:01.638Z,28.37
2018-05-18T12:31:30.674Z,28.90
2018-05-18T12:33:59.619Z,28.80
2018-05-18T12:36:28.573Z,29.23
2018-05-18T12:38:57.526Z,29.77
2018-05-18T12:41:26.558Z,25.30
2018-05-18T12:43:55.911Z,28.50
2018-05-18T12:46:24.965Z,25.93
2018-05-18T12:48:54.015Z,28.70
2018-05-18T12:51:22.963Z,27.10
2018-05-18T12:53:52.470Z,29.33
2018-05-18T12:56:22.191Z,28.90
2018-05-18T12:58:51.214Z,29.23
2018-05-18T13:01:20.169Z,22.03
2018-05-18T13:03:49.149Z,24.00
2018-05-18T13:06:18.183Z,23.93
2018-05-18T13:08:47.248Z,25.77
2018-05-18T13:11:16.292Z,22.53
2018-05-18T13:13:45.229Z,23.73
2018-05-18T13:16:14.171Z,20.27
2018-05-18T13:18:43.160Z,23.80
2018-05-18T13:21:12.107Z,23.50
2018-05-18T13:23:41.495Z,21.63
2018-05-18T13:26:10.507Z,23.70
2018-05-18T13:28:39.567Z,25.63
2018-05-18T13:31:08.516Z,22.87
2018-05-18T13:33:38.026Z,21.33
2018-05-18T13:36:06.983Z,21.43
2018-05-18T13:38:35.970Z,23.80
2018-05-18T13:41:05.542Z,27.53
2018-05-18T13:43:34.489Z,29.67
2018-05-18T13:46:03.443Z,26.27
2018-05-18T13:48:32.442Z,24.83
2018-05-18T13:51:01.482Z,30.93
2018-05-18T13:53:30.438Z,24.43
2018-05-18T13:55:59.449Z,29.03
2018-05-18T13:58:28.402Z,25.17
2018-05-18T14:00:57.360Z,24.57
2018-05-18T14:03:27.080Z,29.00
2018-05-18T14:05:56.039Z,28.73
2018-05-18T14:08:24.990Z,24.50
2018-05-18T14:10:54.153Z,26.80
2018-05-18T14:13:23.040Z,20.90
2018-05-18T14:15:52.101Z,24.17
2018-05-18T14:18:21.814Z,24.87
2018-05-18T14:20:51.448Z,21.77
2018-05-18T14:23:20.484Z,25.20
2018-05-18T14:25:49.898Z,26.50
2018-05-18T14:28:18.882Z,20.30
2018-05-18T14:30:47.978Z,23.60
2018-05-18T14:33:16.979Z,27.97
2018-05-18T14:35:45.974Z,27.90
2018-05-18T14:38:15.842Z,22.27
2018-05-18T14:40:44.885Z,25.87
2018-05-18T14:43:13.977Z,24.93
2018-05-18T14:45:43.574Z,23.40
2018-05-18T14:48:13.001Z,22.43
2018-05-18T14:50:41.952Z,25.43
2018-05-18T14:53:10.897Z,23.57
2018-05-18T14:55:39.881Z,23.40
2018-05-18T14:58:08.824Z,25.47
2018-05-18T15:00:37.773Z,21.07
2018-05-18T15:03:06.794Z,23.57
2018-05-18T15:05:35.772Z,24.60
2018-05-18T15:08:05.025Z,20.10
2018-05-18T15:10:34.081Z,20.53
2018-05-18T15:13:03.083Z,20.53
2018-05-18T15:15:32.159Z,18.77
2018-05-18T15:18:01.183Z,23.40
2018-05-18T15:20:30.125Z,21.30
2018-05-18T15:22:59.794Z,24.73
2018-05-18T15:25:29.541Z,21.17
2018-05-18T15:27:58.506Z,21.60
2018-05-18T15:30:27.461Z,27.53
2018-05-18T15:32:56.557Z,19.97
2018-05-18T15:35:25.926Z,17.40
2018-05-18T15:37:54.887Z,23.40
2018-05-18T15:40:24.694Z,19.17
2018-05-18T15:42:53.705Z,21.33
2018-05-18T15:45:23.066Z,21.53
2018-05-18T15:47:52.050Z,22.87
2018-05-18T15:50:21.009Z,23.93
2018-05-18T15:52:49.951Z,21.30
2018-05-18T15:55:19.011Z,23.97
2018-05-18T15:57:48.011Z,23.53
2018-05-18T16:00:16.961Z,23.10
2018-05-18T16:02:45.950Z,23.10
2018-05-18T16:05:16.241Z,19.77
2018-05-18T16:07:45.188Z,25.03
2018-05-18T16:10:14.625Z,23.43
2018-05-18T16:12:43.622Z,20.70
2018-05-18T16:15:12.570Z,23.67
2018-05-18T16:17:41.621Z,20.97
2018-05-18T16:20:10.681Z,23.30
2018-05-18T16:22:39.725Z,24.73
2018-05-18T16:25:09.235Z,25.83
2018-05-18T16:27:38.193Z,24.67
2018-05-18T16:30:07.248Z,27.93
2018-05-18T16:32:36.242Z,25.33
2018-05-18T16:35:05.194Z,30.73
2018-05-18T16:37:34.138Z,22.23
2018-05-18T16:40:03.152Z,22.73
2018-05-18T16:42:32.115Z,25.97
2018-05-18T16:45:01.377Z,30.97
2018-05-18T16:47:30.919Z,43.87
2018-05-18T16:49:59.875Z,26.60
2018-05-18T16:52:28.818Z,20.27
2018-05-18T16:54:57.792Z,19.83
2018-05-18T16:57:26.737Z,13.20
2018-05-18T16:59:55.667Z,13.97
2018-05-18T17:02:24.722Z,13.17
2018-05-18T17:04:53.665Z,19.23
2018-05-18T17:07:22.820Z,12.70
2018-05-18T17:09:51.801Z,11.00
2018-05-18T17:12:20.822Z,13.37
2018-05-18T17:14:50.136Z,14.37
2018-05-18T17:17:19.193Z,12.43
2018-05-18T17:19:48.149Z,15.17
2018-05-18T17:22:17.089Z,13.00
2018-05-18T17:24:46.726Z,11.57
2018-05-18T17:27:15.678Z,21.53
2018-05-18T17:29:44.926Z,23.43
2018-05-18T17:32:14.048Z,26.43
2018-05-18T17:34:43.002Z,33.00
2018-05-18T17:37:12.321Z,35.00
2018-05-18T17:39:41.326Z,13.20
2018-05-18T17:42:10.295Z,14.50
2018-05-18T17:44:39.237Z,12.37
2018-05-18T17:47:08.285Z,12.77
2018-05-18T17:49:37.246Z,12.70
2018-05-18T17:52:06.281Z,11.60
2018-05-18T17:54:35.266Z,11.50
2018-05-18T17:57:05.109Z,13.87
2018-05-18T17:59:34.063Z,12.97
2018-05-18T18:02:03.099Z,13.17
2018-05-18T18:04:32.115Z,13.83
2018-05-18T18:07:01.090Z,11.83
2018-05-18T18:09:30.815Z,10.70
2018-05-18T18:11:59.797Z,10.83
2018-05-18T18:14:28.814Z,11.10
2018-05-18T18:16:57.803Z,12.57
2018-05-18T18:19:26.748Z,11.73
2018-05-18T18:21:55.702Z,11.40
2018-05-18T18:24:24.695Z,12.13
2018-05-18T18:26:53.631Z,18.17
2018-05-18T18:29:22.583Z,19.00
2018-05-18T18:31:51.601Z,16.90
2018-05-18T18:34:20.554Z,19.20
2018-05-18T18:36:49.669Z,14.97
2018-05-18T18:39:19.296Z,14.77
2018-05-18T18:41:48.246Z,14.57
2018-05-18T18:44:17.280Z,18.20
2018-05-18T18:46:46.324Z,19.90
2018-05-18T18:49:15.369Z,19.20
2018-05-18T18:51:44.370Z,22.93
2018-05-18T18:54:13.358Z,22.90
2018-05-18T18:56:42.315Z,18.93
2018-05-18T18:59:11.369Z,19.93
2018-05-18T19:01:40.363Z,27.17
2018-05-18T19:04:09.315Z,30.40
2018-05-18T19:06:39.729Z,30.83
2018-05-18T19:09:08.709Z,37.37
2018-05-18T19:11:37.655Z,42.63
2018-05-18T19:14:07.354Z,60.40
2018-05-18T19:16:37.157Z,63.43
2018-05-18T19:19:06.733Z,74.50
2018-05-18T19:21:35.673Z,71.67
2018-05-18T19:24:04.752Z,79.90
2018-05-18T19:26:33.699Z,80.17
2018-05-18T19:29:03.328Z,83.23
2018-05-18T19:31:32.322Z,84.23
2018-05-18T19:34:01.326Z,71.97
2018-05-18T19:36:30.302Z,81.20
2018-05-18T19:38:59.301Z,69.63
2018-05-18T19:41:28.358Z,72.20
2018-05-18T19:43:57.310Z,69.13
2018-05-18T19:46:26.314Z,73.73
2018-05-18T19:48:55.261Z,70.03
2018-05-18T19:51:24.219Z,72.53
2018-05-18T19:53:53.274Z,66.87
2018-05-18T19:56:22.293Z,75.40
2018-05-18T19:58:51.483Z,78.07
2018-05-18T20:01:20.537Z,82.10
2018-05-18T20:03:49.562Z,76.87
2018-05-18T20:06:18.563Z,80.40
2018-05-18T20:08:47.554Z,71.23
2018-05-18T20:11:16.497Z,72.17
2018-05-18T20:13:45.458Z,77.30
2018-05-18T20:16:14.448Z,70.47
2018-05-18T20:18:44.217Z,75.80
2018-05-18T20:21:13.215Z,78.20
2018-05-18T20:23:42.223Z,70.03
2018-05-18T20:26:11.274Z,70.17
2018-05-18T20:28:40.282Z,69.50
2018-05-18T20:31:09.306Z,65.57
2018-05-18T20:33:38.289Z,65.87
2018-05-18T20:36:07.262Z,67.73
2018-05-18T20:38:36.657Z,58.53
2018-05-18T20:41:06.632Z,61.10
2018-05-18T20:43:35.638Z,65.23
2018-05-18T20:46:04.663Z,59.47
2018-05-18T20:48:33.681Z,59.90
2018-05-18T20:51:02.978Z,54.43
2018-05-18T20:53:32.052Z,58.37
2018-05-18T20:56:01.082Z,58.00
2018-05-18T20:58:30.176Z,47.30
2018-05-18T21:00:59.132Z,47.07
2018-05-18T21:03:28.349Z,53.57
2018-05-18T21:05:57.355Z,54.20
2018-05-18T21:08:26.400Z,48.93
2018-05-18T21:10:55.440Z,56.53
2018-05-18T21:13:24.522Z,56.07
2018-05-18T21:15:53.695Z,52.13
2018-05-18T21:18:22.758Z,52.13
2018-05-18T21:20:51.729Z,54.37
2018-05-18T21:23:20.759Z,51.03
2018-05-18T21:25:49.799Z,50.77
2018-05-18T21:28:18.851Z,45.43
2018-05-18T21:30:47.922Z,52.47
2018-05-18T21:33:19.199Z,47.17
2018-05-18T21:35:48.264Z,49.83
2018-05-18T21:38:18.331Z,47.00
2018-05-18T21:40:47.571Z,52.73
2018-05-18T21:43:16.715Z,53.13
2018-05-18T21:45:46.495Z,49.87
2018-05-18T21:48:15.534Z,47.17
2018-05-18T21:50:45.319Z,45.83
2018-05-18T21:53:14.469Z,47.97
2018-05-18T21:55:44.288Z,51.90
2018-05-18T21:58:13.341Z,47.33
2018-05-18T22:00:42.406Z,43.17
2018-05-18T22:03:11.448Z,45.03
2018-05-18T22:05:40.483Z,49.33
2018-05-18T22:08:09.498Z,51.97
2018-05-18T22:10:38.501Z,50.87
2018-05-18T22:13:07.533Z,50.13
2018-05-18T22:15:36.604Z,50.33
2018-05-18T22:18:05.679Z,47.43
2018-05-18T22:20:34.697Z,49.37
2018-05-18T22:23:03.781Z,46.23
2018-05-18T22:25:33.348Z,55.93
2018-05-18T22:28:02.351Z,48.93
2018-05-18T22:30:31.383Z,53.53
2018-05-18T22:33:00.367Z,54.53
2018-05-18T22:35:29.381Z,45.00
2018-05-18T22:37:58.436Z,51.30
2018-05-18T22:40:27.447Z,50.30
2018-05-18T22:42:56.448Z,46.87
2018-05-18T22:45:25.508Z,46.50
2018-05-18T22:47:54.497Z,54.47
2018-05-18T22:50:23.477Z,48.93
2018-05-18T22:52:52.477Z,59.17
2018-05-18T22:55:21.443Z,49.77
2018-05-18T22:57:50.431Z,47.33
2018-05-18T23:00:27.188Z,49.10
2018-05-18T23:02:56.179Z,47.87
2018-05-18T23:05:25.145Z,50.03
2018-05-18T23:07:54.162Z,55.13
2018-05-18T23:10:23.412Z,54.77
2018-05-18T23:12:52.380Z,52.47
2018-05-18T23:15:21.403Z,57.13
2018-05-18T23:17:50.402Z,57.23
2018-05-18T23:20:21.124Z,52.00
2018-05-18T23:22:52.728Z,52.70
2018-05-18T23:25:21.706Z,57.00
2018-05-18T23:27:50.684Z,60.57
2018-05-18T23:30:19.707Z,60.80
2018-05-18T23:32:49.042Z,58.73
2018-05-18T23:35:18.044Z,56.70
2018-05-18T23:37:47.079Z,61.60
2018-05-18T23:40:16.107Z,58.20
2018-05-18T23:42:45.134Z,62.23
2018-05-18T23:45:16.076Z,62.03
2018-05-18T23:47:46.224Z,65.30
2018-05-18T23:50:15.269Z,63.50
2018-05-18T23:52:44.355Z,67.03
2018-05-18T23:55:13.368Z,56.90
2018-05-18T23:57:42.390Z,61.27
